Terminal Aerodrome Forecast
Issued by NWS Duluth, MN

Home | Current Version | Previous Version | Text Only | Print | Product List | Glossary On
Versions: 1 2 3 4 5 6 7 8 9 10 11 12 13 14 15 16
064
FTUS43 KDLH 230539
TAFINL
TAF
KINL 230539Z 2306/2406 15004KT P6SM SCT250
     FM231400 15008KT P6SM BKN150
     FM231800 17009G16KT P6SM BKN150
     FM240200 17008KT P6SM VCSH SCT050 BKN150=

USA.gov is the U.S. government's official web portal to all federal, state and local government web resources and services.